| Date | Time | Temp. (oF) | Dew Point (oF) | Rel. Hum. (%) | Press. (in.) | Wind Dir. | Wind Speed (mph) | Hourly Rainfall (in.) |
|
|---|---|---|---|---|---|---|---|---|---|
| 1 | 02/21 | 00:00 | 25 | 23 | 92 | 30.24 | NW | 0 | 0.00 |
| 2 | 02/20 | 23:00 | 26 | 23 | 89 | 30.23 | SSW | 1 | 0.00 |
| 3 | 02/20 | 22:00 | 28 | 23 | 84 | 30.26 | SW | 0 | 0.00 |
| 4 | 02/20 | 21:00 | 31 | 25 | 79 | 30.26 | SW | 2 | 0.00 |
| 5 | 02/20 | 20:00 | 33 | 26 | 76 | 30.27 | SSW | 2 | 0.00 |
| 6 | 02/20 | 19:00 | 37 | 26 | 66 | 30.27 | S | 1 | 0.00 |
| 7 | 02/20 | 18:00 | 41 | 27 | 58 | 30.25 | SW | 2 | 0.00 |
| 8 | 02/20 | 17:00 | 43 | 26 | 53 | 30.25 | SSW | 4 | 0.00 |
| 9 | 02/20 | 16:00 | 45 | 27 | 51 | 30.25 | WSW | 3 | 0.00 |
| 10 | 02/20 | 15:00 | 45 | 27 | 51 | 30.26 | W | 1 | 0.00 |
| 11 | 02/20 | 14:00 | 45 | 28 | 52 | 30.29 | W | 7 | 0.00 |
| 12 | 02/20 | 13:00 | 43 | 28 | 56 | 30.31 | WNW | 5 | 0.00 |
| 13 | 02/20 | 12:00 | 42 | 28 | 59 | 30.34 | WNW | 5 | 0.00 |
| 14 | 02/20 | 11:00 | 41 | 28 | 62 | 30.35 | NW | 5 | 0.00 |
| 15 | 02/20 | 10:00 | 40 | 29 | 65 | 30.35 | NW | 6 | 0.00 |
| 16 | 02/20 | 09:00 | 37 | 28 | 72 | 30.34 | NW | 4 | 0.00 |
| 17 | 02/20 | 08:00 | 32 | 28 | 86 | 30.33 | NW | 4 | 0.00 |
| 18 | 02/20 | 07:00 | 31 | 29 | 94 | 30.30 | WNW | 3 | 0.00 |
| 19 | 02/20 | 06:00 | 30 | 29 | 98 | 30.29 | S | 2 | 0.00 |
| 20 | 02/20 | 05:00 | 31 | 30 | 99 | 30.27 | W | 4 | 0.00 |
| 21 | 02/20 | 04:00 | 32 | 31 | 99 | 30.24 | WNW | 3 | 0.00 |
| 22 | 02/20 | 03:00 | 30 | 29 | 98 | 30.24 | WNW | 2 | 0.00 |
| 23 | 02/20 | 02:00 | 30 | 29 | 96 | 30.23 | W | 4 | 0.00 |
| 24 | 02/20 | 01:00 | 31 | 29 | 94 | 30.22 | W | 2 | 0.00 |